Time;durP1;ratioP1;P1;durP2;ratioP2;P2;SDS_P1;SDS_P2;PMS_P1;PMS_P2;Temp;Humidity;BMP_temperature;BMP_pressure;BME280_temperature;BME280_humidity;BME280_pressure;Samples;Min_cycle;Max_cycle;Signal;HPM_P1;HPM_P2
2021/06/08 00:00:31;;;;;;;5.67;4.80;;;13.70;99.90;;;;;;4943845;29;20181;-85
2021/06/08 00:02:57;;;;;;;5.27;4.77;;;13.60;99.90;;;;;;4943836;29;20244;-84
2021/06/08 00:05:23;;;;;;;6.00;5.10;;;13.60;99.90;;;;;;4943578;29;20622;-84
2021/06/08 00:07:49;;;;;;;6.60;4.60;;;13.70;99.90;;;;;;4944357;29;20214;-85
2021/06/08 00:10:16;;;;;;;5.47;4.83;;;13.70;99.90;;;;;;4943644;29;20189;-85
2021/06/08 00:12:42;;;;;;;6.60;5.47;;;13.70;99.90;;;;;;4943895;29;20228;-85
2021/06/08 00:15:09;;;;;;;8.53;5.57;;;13.70;99.90;;;;;;4961065;29;20174;-85
2021/06/08 00:17:35;;;;;;;5.33;4.83;;;13.70;99.90;;;;;;4961270;29;20197;-84
2021/06/08 00:20:01;;;;;;;6.57;5.10;;;13.70;99.90;;;;;;4960493;29;20185;-85
2021/06/08 00:22:27;;;;;;;6.70;4.90;;;13.60;99.90;;;;;;4943537;29;20187;-85
2021/06/08 00:24:53;;;;;;;5.70;5.10;;;13.60;99.90;;;;;;4960054;28;20228;-85
2021/06/08 00:27:19;;;;;;;5.93;5.37;;;13.60;99.90;;;;;;4961038;29;20666;-85
2021/06/08 00:29:45;;;;;;;6.03;5.40;;;13.70;99.90;;;;;;4943511;29;20523;-85
2021/06/08 00:32:10;;;;;;;7.37;5.90;;;13.70;99.90;;;;;;4943526;29;20177;-85
2021/06/08 00:34:36;;;;;;;7.00;5.77;;;13.70;99.90;;;;;;4943673;29;20701;-85
2021/06/08 00:37:02;;;;;;;7.53;6.63;;;13.70;99.90;;;;;;4943415;29;20705;-85
2021/06/08 00:39:27;;;;;;;7.50;6.17;;;13.70;99.90;;;;;;4943742;29;20211;-85
2021/06/08 00:41:53;;;;;;;7.03;6.40;;;13.70;99.90;;;;;;4960424;29;20311;-85
2021/06/08 00:44:19;;;;;;;7.73;6.83;;;13.70;99.90;;;;;;4961005;29;20177;-85
2021/06/08 00:46:47;;;;;;;7.00;6.30;;;13.70;99.90;;;;;;4960234;29;20701;-85
2021/06/08 00:49:14;;;;;;;7.93;6.57;;;13.70;99.90;;;;;;4960652;29;20170;-85
2021/06/08 00:51:40;;;;;;;8.23;7.10;;;13.60;99.90;;;;;;4960422;29;20192;-85
2021/06/08 00:54:07;;;;;;;7.70;6.83;;;13.60;99.90;;;;;;4960355;29;20578;-85
2021/06/08 00:56:40;;;;;;;8.23;7.20;;;13.70;99.90;;;;;;4943519;29;20295;-85
2021/06/08 00:59:06;;;;;;;7.93;7.00;;;13.60;99.90;;;;;;4959919;29;20283;-85
2021/06/08 01:01:32;;;;;;;8.50;7.13;;;13.70;99.90;;;;;;4960238;29;20173;-85
2021/06/08 01:03:58;;;;;;;8.90;8.00;;;13.60;99.90;;;;;;4942659;29;20224;-85
2021/06/08 01:06:24;;;;;;;8.80;7.70;;;13.60;99.90;;;;;;4943252;29;20209;-85
2021/06/08 01:08:50;;;;;;;9.63;8.67;;;13.60;99.90;;;;;;4960142;29;20177;-85
2021/06/08 01:11:16;;;;;;;8.80;7.90;;;13.60;99.90;;;;;;4960049;29;20273;-84
2021/06/08 01:13:42;;;;;;;10.37;8.20;;;13.60;99.90;;;;;;4959941;29;20196;-85
2021/06/08 01:16:09;;;;;;;9.83;8.83;;;13.60;99.90;;;;;;4959904;29;20281;-85
2021/06/08 01:18:34;;;;;;;10.30;8.97;;;13.60;99.90;;;;;;4942778;29;20244;-85
2021/06/08 01:21:08;;;;;;;10.47;8.83;;;13.60;99.90;;;;;;4959870;29;20236;-85
2021/06/08 01:23:35;;;;;;;8.90;7.80;;;13.50;99.90;;;;;;4942970;29;20181;-85
2021/06/08 01:26:01;;;;;;;9.20;8.33;;;13.50;99.90;;;;;;4960589;29;20248;-85
2021/06/08 01:28:27;;;;;;;8.97;8.07;;;13.50;99.90;;;;;;4942701;29;20185;-85
2021/06/08 01:30:54;;;;;;;10.20;8.70;;;13.50;99.90;;;;;;4943019;29;20187;-85
2021/06/08 01:33:24;;;;;;;10.03;8.97;;;13.50;99.90;;;;;;4960689;29;20183;-85
2021/06/08 01:35:51;;;;;;;9.83;8.77;;;13.40;99.90;;;;;;4943053;29;20705;-85
2021/06/08 01:38:18;;;;;;;10.03;8.57;;;13.40;99.90;;;;;;4960578;29;20801;-85
2021/06/08 01:40:46;;;;;;;9.40;8.50;;;13.40;99.90;;;;;;4943469;29;20181;-85
2021/06/08 01:43:16;;;;;;;10.17;8.57;;;13.40;99.90;;;;;;4942881;29;20650;-86
2021/06/08 01:45:47;;;;;;;10.83;9.53;;;13.30;99.90;;;;;;4960040;29;20196;-86
2021/06/08 01:48:13;;;;;;;10.70;9.60;;;13.30;99.90;;;;;;4960961;29;20532;-85
2021/06/08 01:50:39;;;;;;;11.70;9.23;;;13.30;99.90;;;;;;4960656;29;20216;-85
2021/06/08 01:53:07;;;;;;;10.87;9.77;;;13.40;99.90;;;;;;4960881;29;20274;-86
2021/06/08 01:55:39;;;;;;;10.67;9.57;;;13.40;99.90;;;;;;4942898;29;20232;-85
2021/06/08 01:58:25;;;;;;;11.50;10.37;;;13.40;99.90;;;;;;4943669;29;20208;-85
2021/06/08 02:01:05;;;;;;;11.67;10.03;;;13.30;99.90;;;;;;4960953;29;20168;-85
2021/06/08 02:03:33;;;;;;;11.63;10.17;;;13.30;99.90;;;;;;4961004;29;20171;-85
2021/06/08 02:06:16;;;;;;;10.80;9.50;;;13.30;99.90;;;;;;4960564;29;20678;-86
2021/06/08 02:08:46;;;;;;;13.33;10.40;;;13.30;99.90;;;;;;4943811;29;20227;-85
2021/06/08 02:11:12;;;;;;;12.33;10.67;;;13.30;99.90;;;;;;4943752;29;20328;-86
2021/06/08 02:13:59;;;;;;;11.73;10.50;;;13.40;99.90;;;;;;4960627;29;20269;-86
2021/06/08 02:16:31;;;;;;;10.70;9.60;;;13.30;99.90;;;;;;4943632;29;20554;-85
2021/06/08 02:18:57;;;;;;;11.73;9.87;;;13.30;99.90;;;;;;4944087;29;20270;-85
2021/06/08 02:21:35;;;;;;;12.03;9.70;;;13.30;99.90;;;;;;4961674;29;20233;-85
2021/06/08 02:24:04;;;;;;;11.10;9.90;;;13.30;99.90;;;;;;4944195;29;20172;-86
2021/06/08 02:26:33;;;;;;;13.13;9.43;;;13.40;99.90;;;;;;4961498;29;20203;-86
2021/06/08 02:29:01;;;;;;;11.40;10.20;;;13.30;99.90;;;;;;4943718;29;20192;-86
2021/06/08 02:31:28;;;;;;;11.07;9.57;;;13.40;99.90;;;;;;4944027;29;20559;-86
2021/06/08 02:33:55;;;;;;;10.40;9.13;;;13.40;99.90;;;;;;4961620;29;20181;-86
2021/06/08 02:36:22;;;;;;;10.93;9.23;;;13.40;99.90;;;;;;4962409;29;20254;-85
2021/06/08 02:38:49;;;;;;;10.87;9.40;;;13.30;99.90;;;;;;4944220;29;20231;-86
2021/06/08 02:41:16;;;;;;;10.43;9.33;;;13.30;99.90;;;;;;4944841;29;20614;-85
2021/06/08 02:43:44;;;;;;;10.63;9.37;;;13.30;99.90;;;;;;4945092;29;20177;-86
2021/06/08 02:46:11;;;;;;;9.57;8.63;;;13.30;99.90;;;;;;4962472;29;20287;-85
2021/06/08 02:48:39;;;;;;;10.30;8.77;;;13.30;99.90;;;;;;4946390;29;20279;-86
2021/06/08 02:51:06;;;;;;;12.83;8.90;;;13.30;99.90;;;;;;4966327;29;20562;-86
2021/06/08 02:53:34;;;;;;;10.23;8.67;;;13.30;99.90;;;;;;4966865;29;20188;-86
2021/06/08 02:56:00;;;;;;;9.30;8.40;;;13.40;99.90;;;;;;4949513;29;20208;-86
2021/06/08 02:58:27;;;;;;;11.47;9.00;;;13.40;99.90;;;;;;4949442;29;20209;-85
2021/06/08 03:00:53;;;;;;;10.77;9.23;;;13.30;99.90;;;;;;4966447;29;20184;-86
2021/06/08 03:03:32;;;;;;;11.93;9.07;;;13.40;99.90;;;;;;4949785;29;20213;-86
2021/06/08 03:06:04;;;;;;;10.40;8.33;;;13.30;99.90;;;;;;4950498;29;20212;-86
2021/06/08 03:08:36;;;;;;;10.60;8.00;;;13.30;99.90;;;;;;4968416;29;20165;-85
2021/06/08 03:11:05;;;;;;;8.87;7.20;;;13.30;99.90;;;;;;4949966;29;20181;-85
2021/06/08 03:13:33;;;;;;;8.83;7.93;;;13.30;99.90;;;;;;4967489;29;20199;-85
2021/06/08 03:16:00;;;;;;;9.33;8.27;;;13.30;99.90;;;;;;4968054;29;20201;-86
2021/06/08 03:18:30;;;;;;;10.90;7.60;;;13.20;99.90;;;;;;4967516;29;20295;-86
2021/06/08 03:21:18;;;;;;;10.67;7.87;;;13.20;99.90;;;;;;4950296;29;20196;-86
2021/06/08 03:23:49;;;;;;;9.00;7.60;;;13.20;99.90;;;;;;4950701;29;20177;-86
2021/06/08 03:26:16;;;;;;;9.07;8.17;;;13.20;99.90;;;;;;4950471;29;20251;-86
2021/06/08 03:28:43;;;;;;;9.90;7.43;;;13.20;99.90;;;;;;4968270;29;20177;-85
2021/06/08 03:31:11;;;;;;;11.07;8.50;;;13.20;99.90;;;;;;4967912;29;20236;-85
2021/06/08 03:33:38;;;;;;;9.07;8.17;;;13.20;99.90;;;;;;4951108;29;20185;-86
2021/06/08 03:36:05;;;;;;;9.80;8.30;;;13.20;99.90;;;;;;4975832;29;20192;-84
2021/06/08 03:38:32;;;;;;;8.97;7.93;;;13.20;99.90;;;;;;4967670;29;20208;-85
2021/06/08 03:40:58;;;;;;;10.30;9.13;;;13.30;99.90;;;;;;4966326;29;20180;-86
2021/06/08 03:43:25;;;;;;;9.37;8.43;;;13.30;99.90;;;;;;4949835;29;20177;-85
2021/06/08 03:45:51;;;;;;;11.83;9.20;;;13.30;99.90;;;;;;4950648;29;20200;-85
2021/06/08 03:48:18;;;;;;;10.80;9.33;;;13.30;99.90;;;;;;4966863;29;20639;-86
2021/06/08 03:50:44;;;;;;;10.53;9.10;;;13.20;99.90;;;;;;4949589;29;20187;-85
2021/06/08 03:53:11;;;;;;;13.23;10.43;;;13.20;99.90;;;;;;4967200;29;20188;-85
2021/06/08 03:55:37;;;;;;;12.90;10.07;;;13.20;99.90;;;;;;4967555;29;20603;-85
2021/06/08 03:58:11;;;;;;;15.13;11.07;;;13.30;99.90;;;;;;4950177;29;20238;-85
2021/06/08 04:00:38;;;;;;;11.63;9.67;;;13.20;99.90;;;;;;4949790;29;20172;-85
2021/06/08 04:03:06;;;;;;;12.80;11.03;;;13.20;99.90;;;;;;4950759;29;20199;-86
2021/06/08 04:05:32;;;;;;;12.33;10.50;;;13.30;99.90;;;;;;4950619;29;20208;-86
2021/06/08 04:07:58;;;;;;;14.23;11.60;;;13.30;99.90;;;;;;4951179;29;20204;-86
2021/06/08 04:10:24;;;;;;;13.87;11.63;;;13.30;99.90;;;;;;4951008;29;20180;-85
2021/06/08 04:12:51;;;;;;;12.87;11.47;;;13.30;99.90;;;;;;4957098;29;20181;-84
2021/06/08 04:15:18;;;;;;;12.77;11.43;;;13.30;99.90;;;;;;4946622;29;20260;-85
2021/06/08 04:17:43;;;;;;;14.20;11.97;;;13.30;99.90;;;;;;4963029;29;20752;-85
2021/06/08 04:20:11;;;;;;;15.70;12.20;;;13.30;99.90;;;;;;4945752;29;20172;-85
2021/06/08 04:22:38;;;;;;;13.30;11.83;;;13.30;99.90;;;;;;4962605;29;20251;-85
2021/06/08 04:25:07;;;;;;;13.33;11.93;;;13.40;99.90;;;;;;4963841;29;20259;-85
2021/06/08 04:27:35;;;;;;;12.97;11.63;;;13.40;99.90;;;;;;4945284;29;20165;-85
2021/06/08 04:30:01;;;;;;;13.10;11.57;;;13.40;99.90;;;;;;4945409;29;20659;-85
2021/06/08 04:32:27;;;;;;;19.80;12.60;;;13.50;99.90;;;;;;4945220;29;20208;-86
2021/06/08 04:34:55;;;;;;;14.33;12.20;;;13.50;99.90;;;;;;4963069;29;20169;-85
2021/06/08 04:37:21;;;;;;;13.07;11.50;;;13.50;99.90;;;;;;4945063;29;20248;-85
2021/06/08 04:39:48;;;;;;;15.40;11.17;;;13.60;99.90;;;;;;4962658;29;20651;-85
2021/06/08 04:42:16;;;;;;;13.63;12.23;;;13.70;99.90;;;;;;4945683;29;20172;-85
2021/06/08 04:44:43;;;;;;;12.67;10.70;;;13.80;99.90;;;;;;4945538;29;20588;-85
2021/06/08 04:47:10;;;;;;;13.97;11.70;;;13.80;99.90;;;;;;4944700;29;20228;-85
2021/06/08 04:49:36;;;;;;;16.70;13.10;;;13.90;99.90;;;;;;4945737;29;20267;-85
2021/06/08 04:52:04;;;;;;;16.13;13.47;;;14.00;99.90;;;;;;4945026;29;20232;-85
2021/06/08 04:54:30;;;;;;;16.23;13.17;;;14.10;99.90;;;;;;4945169;29;20189;-83
2021/06/08 04:56:56;;;;;;;14.77;12.53;;;14.10;99.90;;;;;;4943906;29;20207;-84
2021/06/08 04:59:50;;;;;;;20.43;15.07;;;14.20;99.90;;;;;;4943698;29;20630;-83
2021/06/08 05:02:31;;;;;;;22.40;16.50;;;14.20;99.90;;;;;;4947351;29;20193;-83
2021/06/08 05:05:06;;;;;;;23.87;16.17;;;14.20;99.90;;;;;;4944192;29;20180;-84
2021/06/08 05:07:37;;;;;;;23.57;17.07;;;14.30;99.90;;;;;;4943611;29;20169;-83
2021/06/08 05:10:06;;;;;;;23.93;17.23;;;14.30;99.90;;;;;;4943698;29;20172;-83
2021/06/08 05:12:33;;;;;;;23.53;17.77;;;14.30;99.90;;;;;;4960764;28;20208;-84
2021/06/08 05:15:01;;;;;;;27.23;17.63;;;14.40;99.90;;;;;;4944108;29;20263;-84
2021/06/08 05:17:30;;;;;;;24.87;18.63;;;14.40;99.90;;;;;;4960465;29;20184;-83
2021/06/08 05:19:55;;;;;;;22.93;16.90;;;14.40;99.90;;;;;;4943112;29;20209;-84
2021/06/08 05:22:23;;;;;;;26.67;19.20;;;14.40;99.90;;;;;;4960795;29;20220;-83
2021/06/08 05:24:54;;;;;;;26.83;19.10;;;14.40;99.90;;;;;;4943146;29;20177;-85
2021/06/08 05:27:21;;;;;;;25.37;19.37;;;14.40;99.90;;;;;;4942492;29;20287;-84
2021/06/08 05:29:51;;;;;;;28.27;19.57;;;14.50;99.90;;;;;;4959569;29;20681;-84
2021/06/08 05:32:17;;;;;;;25.07;19.43;;;14.60;99.90;;;;;;4960791;29;20169;-84
2021/06/08 05:34:44;;;;;;;25.10;18.83;;;14.60;99.90;;;;;;4960393;29;20178;-84
2021/06/08 05:37:13;;;;;;;25.57;19.47;;;14.70;99.90;;;;;;4942871;29;20205;-84
2021/06/08 05:39:40;;;;;;;24.27;18.37;;;14.70;99.90;;;;;;4959804;29;20208;-84
2021/06/08 05:42:07;;;;;;;21.83;17.37;;;14.80;99.90;;;;;;4942921;29;20208;-86
2021/06/08 05:44:36;;;;;;;23.03;18.33;;;14.80;99.90;;;;;;4960643;29;20180;-86
2021/06/08 05:47:04;;;;;;;27.13;19.00;;;14.90;99.90;;;;;;4943112;29;20200;-86
2021/06/08 05:49:31;;;;;;;25.00;20.27;;;14.90;99.90;;;;;;4960824;29;20177;-85
2021/06/08 05:51:59;;;;;;;23.57;18.03;;;14.90;99.90;;;;;;4942984;29;20272;-86
2021/06/08 05:54:29;;;;;;;22.80;18.17;;;14.90;99.90;;;;;;4943895;29;20177;-86
2021/06/08 05:56:56;;;;;;;23.97;19.37;;;15.00;99.90;;;;;;4943741;29;20679;-84
2021/06/08 05:59:23;;;;;;;22.20;17.60;;;15.00;99.90;;;;;;4944917;29;20213;-85
2021/06/08 06:01:49;;;;;;;23.63;19.33;;;15.00;99.90;;;;;;4944296;29;20272;-86
2021/06/08 06:04:16;;;;;;;28.43;19.83;;;15.00;99.90;;;;;;4943953;29;20655;-85
2021/06/08 06:06:46;;;;;;;23.37;18.73;;;15.00;99.90;;;;;;4943060;29;20201;-86
2021/06/08 06:09:14;;;;;;;23.07;18.77;;;15.10;99.90;;;;;;4943049;29;20173;-85
2021/06/08 06:11:40;;;;;;;22.23;18.13;;;15.10;99.90;;;;;;4956973;29;20239;-85
2021/06/08 06:14:07;;;;;;;24.37;19.33;;;15.20;99.90;;;;;;4957908;29;20188;-85
2021/06/08 06:16:54;;;;;;;24.00;18.93;;;15.20;99.90;;;;;;4943465;29;20675;-85
2021/06/08 06:19:24;;;;;;;23.17;20.03;;;15.30;99.90;;;;;;4942856;29;20200;-85
2021/06/08 06:21:52;;;;;;;26.63;19.90;;;15.30;99.90;;;;;;4942499;28;20176;-85
2021/06/08 06:24:18;;;;;;;27.03;21.00;;;15.20;99.90;;;;;;4964194;29;20172;-85
2021/06/08 06:26:45;;;;;;;27.73;19.17;;;15.30;99.90;;;;;;4964465;29;20244;-85
2021/06/08 06:29:13;;;;;;;22.97;19.47;;;15.30;99.90;;;;;;4946866;29;20186;-85
2021/06/08 06:31:45;;;;;;;26.97;20.50;;;15.30;99.90;;;;;;4948264;29;20192;-85
2021/06/08 06:34:12;;;;;;;24.13;19.40;;;15.30;99.90;;;;;;4947891;29;20169;-85
2021/06/08 06:36:38;;;;;;;20.87;18.57;;;15.50;99.90;;;;;;4947639;29;20204;-85
2021/06/08 06:39:10;;;;;;;22.33;19.13;;;15.50;99.90;;;;;;4947670;29;20237;-85
2021/06/08 06:41:42;;;;;;;23.90;20.13;;;15.60;99.90;;;;;;4964547;29;20161;-85
2021/06/08 06:44:09;;;;;;;22.37;17.93;;;15.60;99.90;;;;;;4948036;29;20184;-85
2021/06/08 06:46:34;;;;;;;20.93;18.40;;;15.70;99.90;;;;;;4949321;29;20227;-85
2021/06/08 06:49:00;;;;;;;28.03;20.43;;;15.70;99.90;;;;;;4948977;29;20557;-85
2021/06/08 06:51:26;;;;;;;22.10;19.37;;;15.80;99.90;;;;;;4965262;29;20181;-85
2021/06/08 06:53:55;;;;;;;23.70;20.00;;;15.90;99.90;;;;;;4965578;29;20685;-85
2021/06/08 06:56:22;;;;;;;25.37;19.90;;;15.90;99.90;;;;;;4966282;29;20189;-85
2021/06/08 06:58:50;;;;;;;25.07;19.87;;;16.00;99.90;;;;;;4948025;29;20205;-85
2021/06/08 07:01:21;;;;;;;26.17;19.37;;;16.00;99.90;;;;;;4947310;29;20180;-86
2021/06/08 07:03:49;;;;;;;23.03;20.37;;;16.00;99.90;;;;;;4965747;29;20161;-85
2021/06/08 07:06:15;;;;;;;24.33;21.37;;;16.00;99.90;;;;;;4965595;29;20257;-86
2021/06/08 07:08:41;;;;;;;24.23;20.40;;;16.00;99.90;;;;;;4966061;29;20188;-85
2021/06/08 07:11:07;;;;;;;23.40;20.60;;;16.00;99.90;;;;;;4947928;29;20192;-86
2021/06/08 07:13:34;;;;;;;22.50;19.70;;;16.20;99.90;;;;;;4965781;29;20552;-85
2021/06/08 07:16:00;;;;;;;22.77;19.83;;;16.30;99.90;;;;;;4947933;29;20208;-85
2021/06/08 07:18:25;;;;;;;26.13;21.63;;;16.30;99.90;;;;;;4948426;29;20259;-86
2021/06/08 07:20:51;;;;;;;21.47;19.17;;;16.40;99.90;;;;;;4947859;29;20177;-86
2021/06/08 07:23:21;;;;;;;21.77;19.43;;;16.40;99.90;;;;;;4947886;29;20639;-86
2021/06/08 07:25:48;;;;;;;24.83;19.73;;;16.50;99.90;;;;;;4947753;29;20196;-85
2021/06/08 07:28:18;;;;;;;21.33;19.03;;;16.60;99.90;;;;;;4948201;29;20191;-86
2021/06/08 07:30:44;;;;;;;20.63;17.63;;;16.60;99.90;;;;;;4947563;29;20180;-86
2021/06/08 07:33:18;;;;;;;19.83;17.73;;;16.70;99.90;;;;;;4965514;29;20662;-86
2021/06/08 07:36:02;;;;;;;22.40;17.93;;;16.70;99.90;;;;;;4947851;29;20256;-86
2021/06/08 07:38:52;;;;;;;24.07;20.40;;;16.70;99.90;;;;;;4948701;29;20207;-86
2021/06/08 07:41:26;;;;;;;20.97;18.67;;;16.70;99.90;;;;;;4948082;29;20239;-86
2021/06/08 07:44:00;;;;;;;23.53;18.20;;;16.80;99.90;;;;;;4966013;29;20169;-86
2021/06/08 07:46:28;;;;;;;20.43;17.80;;;16.80;99.90;;;;;;4965956;29;20195;-86
2021/06/08 07:48:56;;;;;;;21.20;18.73;;;16.80;99.90;;;;;;4948270;29;20543;-86
2021/06/08 07:51:22;;;;;;;23.73;18.60;;;16.90;99.90;;;;;;4965563;29;20177;-86
2021/06/08 07:53:51;;;;;;;20.37;18.10;;;16.70;99.90;;;;;;4949110;29;20177;-86
2021/06/08 07:56:17;;;;;;;20.73;18.43;;;16.70;99.90;;;;;;4966969;29;20196;-86
2021/06/08 07:58:43;;;;;;;22.47;18.00;;;16.80;99.90;;;;;;4948539;29;20209;-86
2021/06/08 08:01:09;;;;;;;20.83;18.30;;;16.80;99.90;;;;;;4948545;29;20639;-86
2021/06/08 08:03:35;;;;;;;20.40;18.17;;;17.00;99.90;;;;;;4948406;29;20181;-86
2021/06/08 08:06:04;;;;;;;20.77;17.73;;;17.00;99.90;;;;;;4965459;29;20197;-86
2021/06/08 08:08:31;;;;;;;21.13;18.40;;;17.10;99.90;;;;;;4972992;28;20191;-86
2021/06/08 08:10:58;;;;;;;21.13;18.90;;;17.20;99.90;;;;;;4943313;29;20180;-86
2021/06/08 08:13:29;;;;;;;20.27;18.13;;;17.30;99.90;;;;;;4959447;29;20195;-86
2021/06/08 08:15:56;;;;;;;18.07;16.17;;;17.50;99.90;;;;;;4944809;29;20204;-86
2021/06/08 08:18:23;;;;;;;21.30;18.43;;;17.50;99.90;;;;;;4962675;29;20197;-86
2021/06/08 08:20:55;;;;;;;20.07;17.73;;;17.60;99.90;;;;;;4945607;29;20184;-86
2021/06/08 08:23:31;;;;;;;22.00;19.67;;;17.60;99.90;;;;;;4962981;29;20165;-86
2021/06/08 08:26:00;;;;;;;22.63;19.13;;;17.60;99.90;;;;;;4944881;29;20295;-86
2021/06/08 08:28:26;;;;;;;20.77;18.03;;;17.70;99.90;;;;;;4945571;29;20180;-86
2021/06/08 08:30:59;;;;;;;20.53;17.30;;;18.00;99.90;;;;;;4944552;29;20188;-86
2021/06/08 08:33:27;;;;;;;18.87;16.87;;;18.30;99.90;;;;;;4944085;29;20197;-86
2021/06/08 08:35:53;;;;;;;18.23;16.23;;;18.60;99.90;;;;;;4944314;29;20287;-86
2021/06/08 08:38:18;;;;;;;19.97;17.37;;;18.80;99.90;;;;;;4944597;29;20205;-86
2021/06/08 08:40:44;;;;;;;19.17;17.13;;;18.90;99.90;;;;;;4960966;29;20251;-86
2021/06/08 08:43:11;;;;;;;18.83;16.97;;;18.90;99.90;;;;;;4961212;29;20165;-86
2021/06/08 08:45:36;;;;;;;19.10;17.10;;;18.80;99.90;;;;;;4960583;28;20659;-86
2021/06/08 08:48:02;;;;;;;19.20;15.83;;;18.60;99.90;;;;;;4944641;29;20217;-86
2021/06/08 08:50:29;;;;;;;18.77;16.80;;;18.50;99.90;;;;;;4943762;29;20185;-86
2021/06/08 08:52:59;;;;;;;18.70;16.67;;;18.50;99.90;;;;;;4944165;29;20272;-86
2021/06/08 08:55:27;;;;;;;20.50;17.60;;;18.40;99.90;;;;;;4961376;29;20201;-86
2021/06/08 08:57:55;;;;;;;19.63;17.60;;;18.40;99.90;;;;;;4943429;29;20300;-86
2021/06/08 09:00:24;;;;;;;19.13;17.13;;;18.30;99.90;;;;;;4943690;29;20173;-86
2021/06/08 09:02:56;;;;;;;19.83;17.83;;;18.10;99.90;;;;;;4943353;29;20258;-86
2021/06/08 09:05:23;;;;;;;19.50;17.60;;;18.10;99.90;;;;;;4960635;29;20560;-86
2021/06/08 09:07:52;;;;;;;17.90;16.10;;;18.20;99.90;;;;;;4960747;29;20176;-86
2021/06/08 09:10:19;;;;;;;20.23;17.33;;;18.10;99.90;;;;;;4942702;29;20189;-86
2021/06/08 09:12:45;;;;;;;18.33;16.43;;;18.30;99.90;;;;;;4960955;29;20647;-86
2021/06/08 09:15:11;;;;;;;20.27;16.83;;;18.30;99.90;;;;;;4943094;29;20167;-86
2021/06/08 09:17:39;;;;;;;18.77;16.23;;;18.50;99.90;;;;;;4942770;29;20178;-86
2021/06/08 09:20:07;;;;;;;17.33;15.50;;;18.70;99.90;;;;;;4943166;29;20271;-86
2021/06/08 09:22:53;;;;;;;16.90;15.10;;;19.00;99.90;;;;;;4960105;29;20184;-85
2021/06/08 09:25:39;;;;;;;16.80;14.93;;;19.40;99.90;;;;;;4942643;29;20219;-86
2021/06/08 09:28:28;;;;;;;18.03;15.63;;;20.00;99.90;;;;;;4960071;29;20165;-86
2021/06/08 09:31:15;;;;;;;16.60;14.70;;;21.10;99.90;;;;;;4942486;29;20182;-85
2021/06/08 09:33:44;;;;;;;17.73;15.17;;;21.80;99.90;;;;;;4942783;29;20180;-86
2021/06/08 09:36:18;;;;;;;16.07;14.53;;;21.90;99.90;;;;;;4959986;29;20201;-86
2021/06/08 09:39:00;;;;;;;16.50;14.90;;;21.60;99.90;;;;;;4942399;29;20557;-86
2021/06/08 09:41:30;;;;;;;15.80;14.30;;;21.40;99.90;;;;;;4959493;29;20639;-86
2021/06/08 09:44:06;;;;;;;16.20;14.60;;;21.70;99.90;;;;;;4941985;29;20227;-85
2021/06/08 09:46:56;;;;;;;20.87;15.00;;;21.90;99.90;;;;;;4942384;29;20192;-85
2021/06/08 09:49:31;;;;;;;15.00;13.60;;;21.60;99.90;;;;;;4942914;29;20169;-85
2021/06/08 09:52:02;;;;;;;16.73;14.67;;;21.50;99.90;;;;;;4942825;29;20203;-85
2021/06/08 09:54:38;;;;;;;15.93;14.33;;;21.80;99.90;;;;;;4942018;29;20235;-85
2021/06/08 09:57:14;;;;;;;16.33;14.73;;;22.60;99.90;;;;;;4941777;29;20251;-85
2021/06/08 09:59:59;;;;;;;14.83;13.33;;;23.20;99.90;;;;;;4959627;29;20196;-85
2021/06/08 10:02:26;;;;;;;14.97;13.57;;;23.50;99.90;;;;;;4942011;29;20181;-85
2021/06/08 10:04:53;;;;;;;14.93;13.53;;;23.30;99.90;;;;;;4959567;29;20180;-85
2021/06/08 10:07:29;;;;;;;13.53;12.30;;;23.50;99.90;;;;;;4958565;29;20197;-82
2021/06/08 10:10:06;;;;;;;14.03;12.73;;;24.20;99.90;;;;;;4941736;29;20176;-81
2021/06/08 10:12:32;;;;;;;13.40;11.60;;;24.70;99.90;;;;;;4941744;29;20185;-82
2021/06/08 10:15:10;;;;;;;13.40;12.20;;;24.80;99.90;;;;;;4958477;29;20305;-82
2021/06/08 10:17:38;;;;;;;14.40;11.57;;;24.90;99.90;;;;;;4941748;29;20664;-83
2021/06/08 10:20:25;;;;;;;14.27;12.87;;;24.90;99.90;;;;;;4941503;29;20181;-82
2021/06/08 10:22:51;;;;;;;17.43;12.00;;;24.80;99.90;;;;;;4958876;29;20167;-84
2021/06/08 10:25:17;;;;;;;13.70;12.40;;;24.20;99.90;;;;;;4957713;29;20181;-81
2021/06/08 10:27:43;;;;;;;13.43;12.13;;;23.80;99.90;;;;;;4958258;29;20178;-81
2021/06/08 10:30:10;;;;;;;13.80;12.50;;;23.40;99.90;;;;;;4959617;29;20210;-82
2021/06/08 10:32:37;;;;;;;13.03;11.63;;;23.70;99.90;;;;;;4943304;29;20209;-82
2021/06/08 10:35:05;;;;;;;11.80;10.80;;;24.40;99.90;;;;;;4943004;29;20186;-82
2021/06/08 10:37:32;;;;;;;12.27;10.23;;;24.40;99.90;;;;;;4959812;29;20224;-82
2021/06/08 10:40:00;;;;;;;12.30;11.13;;;24.70;99.90;;;;;;4960884;29;20165;-82
2021/06/08 10:42:27;;;;;;;10.90;9.90;;;25.20;99.90;;;;;;4943943;29;20550;-82
2021/06/08 10:45:09;;;;;;;15.20;11.37;;;25.50;99.90;;;;;;4961764;29;20226;-81
2021/06/08 10:50:27;;;;;;;11.80;10.70;;;25.90;99.90;;;;;;4961521;29;20187;-82
2021/06/08 10:52:56;;;;;;;11.23;10.20;;;26.00;99.90;;;;;;4944272;29;20548;-81
2021/06/08 10:55:36;;;;;;;11.77;10.43;;;25.90;99.90;;;;;;4944131;29;20233;-83
2021/06/08 10:58:05;;;;;;;12.10;11.00;;;25.90;99.90;;;;;;4944148;29;20781;-82
2021/06/08 11:00:39;;;;;;;10.60;9.57;;;26.10;99.90;;;;;;4960111;29;20180;-82
2021/06/08 11:03:07;;;;;;;11.83;10.70;;;25.90;99.90;;;;;;4942659;29;20729;-83
2021/06/08 11:06:03;;;;;;;10.83;9.73;;;25.80;99.90;;;;;;4960333;29;20200;-82
2021/06/08 11:08:59;;;;;;;10.23;9.33;;;26.00;99.90;;;;;;4942971;29;20639;-82
2021/06/08 11:11:50;;;;;;;9.90;9.10;;;26.30;99.90;;;;;;4931928;29;20192;-82
2021/06/08 11:17:12;;;;;;;10.23;9.37;;;26.60;99.90;;;;;;4964981;29;20205;-83
2021/06/08 11:19:44;;;;;;;11.83;9.17;;;26.60;99.90;;;;;;4947840;29;20697;-83
2021/06/08 11:22:11;;;;;;;9.90;9.00;;;26.10;99.90;;;;;;4947899;29;20192;-83
2021/06/08 11:24:41;;;;;;;10.70;9.60;;;26.10;99.90;;;;;;4948283;29;20540;-83
2021/06/08 11:27:09;;;;;;;11.20;9.10;;;26.60;99.90;;;;;;4947910;29;20202;-83
2021/06/08 11:29:55;;;;;;;10.37;9.37;;;27.00;99.90;;;;;;4965756;29;20185;-83
2021/06/08 11:32:30;;;;;;;10.40;9.50;;;27.40;99.90;;;;;;4948444;29;20237;-82
2021/06/08 11:35:36;;;;;;;10.73;7.97;;;27.30;99.90;;;;;;4948335;29;20184;-83
2021/06/08 11:38:06;;;;;;;9.13;8.23;;;27.70;99.90;;;;;;4948451;29;20193;-83
2021/06/08 11:40:35;;;;;;;10.33;9.33;;;28.20;99.90;;;;;;4946959;29;20262;-83
2021/06/08 11:43:23;;;;;;;9.43;8.53;;;28.40;99.90;;;;;;4948162;29;20245;-83
2021/06/08 11:46:11;;;;;;;10.70;9.07;;;28.60;99.90;;;;;;4964800;29;20201;-83
2021/06/08 11:48:38;;;;;;;9.57;8.50;;;27.70;99.90;;;;;;4948040;29;20173;-83
2021/06/08 11:51:16;;;;;;;9.30;8.43;;;26.90;99.90;;;;;;4965516;29;20244;-84
2021/06/08 11:54:08;;;;;;;9.37;8.37;;;27.60;99.90;;;;;;4947782;29;20173;-83
2021/06/08 11:56:51;;;;;;;9.33;7.93;;;28.50;99.90;;;;;;4948087;29;20205;-79
2021/06/08 11:59:22;;;;;;;9.57;7.90;;;29.40;99.90;;;;;;4964965;29;20679;-78
2021/06/08 12:01:56;;;;;;;8.70;7.80;;;29.90;99.90;;;;;;4966000;29;20166;-78
2021/06/08 12:04:25;;;;;;;8.10;7.40;;;29.80;99.90;;;;;;4966355;29;20639;-79
2021/06/08 12:07:08;;;;;;;8.67;7.93;;;29.80;99.90;;;;;;4946903;29;20637;-79
2021/06/08 12:09:45;;;;;;;8.30;7.40;;;29.70;97.90;;;;;;4963561;29;20584;-78
2021/06/08 12:12:13;;;;;;;8.70;7.80;;;28.70;99.90;;;;;;4961390;29;20159;-79
2021/06/08 12:14:56;;;;;;;9.63;8.73;;;29.00;99.90;;;;;;4943407;29;20220;-79
2021/06/08 12:17:22;;;;;;;7.60;6.93;;;29.40;99.40;;;;;;4961772;29;20193;-80
2021/06/08 12:19:48;;;;;;;8.43;7.63;;;29.60;99.00;;;;;;4961407;28;20211;-79
2021/06/08 12:22:31;;;;;;;8.93;8.03;;;29.80;97.10;;;;;;4944742;29;20266;-78
2021/06/08 12:25:00;;;;;;;8.80;8.00;;;30.10;98.70;;;;;;4960869;29;20165;-80
2021/06/08 12:27:42;;;;;;;10.03;9.20;;;30.20;98.80;;;;;;4944636;29;20184;-79
2021/06/08 12:30:11;;;;;;;9.50;8.13;;;30.10;93.50;;;;;;4961839;29;20173;-79
2021/06/08 12:32:38;;;;;;;8.20;7.53;;;29.90;99.90;;;;;;4961679;29;20173;-79
2021/06/08 12:35:18;;;;;;;9.20;8.40;;;30.10;98.60;;;;;;4961182;29;20173;-79
2021/06/08 12:37:44;;;;;;;9.20;8.17;;;30.40;95.00;;;;;;4962565;29;20168;-80
2021/06/08 12:40:16;;;;;;;8.50;7.70;;;30.50;95.60;;;;;;4962262;29;20165;-80
2021/06/08 12:42:41;;;;;;;8.97;7.47;;;31.10;92.40;;;;;;4961952;29;20161;-80
2021/06/08 12:45:07;;;;;;;9.03;8.13;;;30.70;93.70;;;;;;4961279;29;20181;-79
2021/06/08 12:47:34;;;;;;;12.80;7.33;;;30.20;93.40;;;;;;4961699;29;20184;-79
2021/06/08 12:50:07;;;;;;;9.20;7.60;;;30.20;96.10;;;;;;4944614;29;20193;-80
2021/06/08 12:52:33;;;;;;;8.77;7.97;;;30.40;96.00;;;;;;4962004;29;20172;-80